sensor_id;sensor_type;location;lat;lon;timestamp;P1;durP1;ratioP1;P2;durP2;ratioP2
78120;SDS011;67585;44.802;10.332;2023-09-12T00:00:54;8.20;;;3.83;;
78120;SDS011;67585;44.802;10.332;2023-09-12T00:03:21;8.32;;;4.22;;
78120;SDS011;67585;44.802;10.332;2023-09-12T00:05:54;12.25;;;4.47;;
78120;SDS011;67585;44.802;10.332;2023-09-12T00:08:21;10.50;;;3.80;;
78120;SDS011;67585;44.802;10.332;2023-09-12T00:10:46;8.63;;;3.60;;
78120;SDS011;67585;44.802;10.332;2023-09-12T00:13:12;11.98;;;3.50;;
78120;SDS011;67585;44.802;10.332;2023-09-12T00:15:37;8.25;;;4.60;;
78120;SDS011;67585;44.802;10.332;2023-09-12T00:18:03;5.90;;;3.10;;
78120;SDS011;67585;44.802;10.332;2023-09-12T00:20:29;7.80;;;4.35;;
78120;SDS011;67585;44.802;10.332;2023-09-12T00:22:54;6.15;;;3.40;;
78120;SDS011;67585;44.802;10.332;2023-09-12T00:25:21;7.45;;;3.47;;
78120;SDS011;67585;44.802;10.332;2023-09-12T00:27:46;7.57;;;3.47;;
78120;SDS011;67585;44.802;10.332;2023-09-12T00:30:13;8.82;;;3.80;;
78120;SDS011;67585;44.802;10.332;2023-09-12T00:32:40;8.35;;;3.95;;
78120;SDS011;67585;44.802;10.332;2023-09-12T00:35:05;6.85;;;3.10;;
78120;SDS011;67585;44.802;10.332;2023-09-12T00:37:31;6.82;;;3.00;;
78120;SDS011;67585;44.802;10.332;2023-09-12T00:39:56;7.43;;;3.78;;
78120;SDS011;67585;44.802;10.332;2023-09-12T00:42:24;8.35;;;3.58;;
78120;SDS011;67585;44.802;10.332;2023-09-12T00:44:50;8.57;;;3.58;;
78120;SDS011;67585;44.802;10.332;2023-09-12T00:47:16;9.85;;;2.80;;
78120;SDS011;67585;44.802;10.332;2023-09-12T00:49:41;10.02;;;3.17;;
78120;SDS011;67585;44.802;10.332;2023-09-12T00:52:07;8.52;;;3.00;;
78120;SDS011;67585;44.802;10.332;2023-09-12T00:54:33;6.50;;;3.33;;
78120;SDS011;67585;44.802;10.332;2023-09-12T00:56:59;8.98;;;3.47;;
78120;SDS011;67585;44.802;10.332;2023-09-12T00:59:24;8.73;;;3.20;;
78120;SDS011;67585;44.802;10.332;2023-09-12T01:01:50;7.75;;;3.67;;
78120;SDS011;67585;44.802;10.332;2023-09-12T01:04:15;8.15;;;3.85;;
78120;SDS011;67585;44.802;10.332;2023-09-12T01:06:41;9.13;;;3.10;;
78120;SDS011;67585;44.802;10.332;2023-09-12T01:09:07;6.85;;;2.83;;
78120;SDS011;67585;44.802;10.332;2023-09-12T01:11:33;6.95;;;3.70;;
78120;SDS011;67585;44.802;10.332;2023-09-12T01:13:59;7.05;;;3.42;;
78120;SDS011;67585;44.802;10.332;2023-09-12T01:16:24;7.97;;;3.15;;
78120;SDS011;67585;44.802;10.332;2023-09-12T01:18:50;6.97;;;3.33;;
78120;SDS011;67585;44.802;10.332;2023-09-12T01:29:30;8.52;;;4.03;;
78120;SDS011;67585;44.802;10.332;2023-09-12T01:31:56;8.00;;;3.78;;
78120;SDS011;67585;44.802;10.332;2023-09-12T01:34:22;7.65;;;2.97;;
78120;SDS011;67585;44.802;10.332;2023-09-12T01:36:48;6.88;;;3.67;;
78120;SDS011;67585;44.802;10.332;2023-09-12T01:39:13;7.97;;;3.72;;
78120;SDS011;67585;44.802;10.332;2023-09-12T01:41:39;5.85;;;3.03;;
78120;SDS011;67585;44.802;10.332;2023-09-12T01:44:08;8.50;;;3.78;;
78120;SDS011;67585;44.802;10.332;2023-09-12T01:46:35;6.47;;;2.55;;
78120;SDS011;67585;44.802;10.332;2023-09-12T01:49:02;7.93;;;3.70;;
78120;SDS011;67585;44.802;10.332;2023-09-12T01:51:30;6.85;;;3.55;;
78120;SDS011;67585;44.802;10.332;2023-09-12T01:53:56;8.80;;;4.35;;
78120;SDS011;67585;44.802;10.332;2023-09-12T01:56:23;8.45;;;3.25;;
78120;SDS011;67585;44.802;10.332;2023-09-12T01:58:49;8.45;;;4.07;;
78120;SDS011;67585;44.802;10.332;2023-09-12T02:01:15;8.07;;;3.35;;
78120;SDS011;67585;44.802;10.332;2023-09-12T02:03:40;9.63;;;3.53;;
78120;SDS011;67585;44.802;10.332;2023-09-12T02:06:05;8.25;;;3.40;;
78120;SDS011;67585;44.802;10.332;2023-09-12T02:08:31;8.30;;;4.25;;
78120;SDS011;67585;44.802;10.332;2023-09-12T02:10:56;7.75;;;3.35;;
78120;SDS011;67585;44.802;10.332;2023-09-12T02:13:21;8.45;;;3.85;;
78120;SDS011;67585;44.802;10.332;2023-09-12T02:15:47;10.18;;;4.45;;
78120;SDS011;67585;44.802;10.332;2023-09-12T02:18:12;7.32;;;4.15;;
78120;SDS011;67585;44.802;10.332;2023-09-12T02:20:38;7.03;;;3.55;;
78120;SDS011;67585;44.802;10.332;2023-09-12T02:23:05;8.45;;;4.30;;
78120;SDS011;67585;44.802;10.332;2023-09-12T02:25:30;9.07;;;4.43;;
78120;SDS011;67585;44.802;10.332;2023-09-12T02:27:56;9.68;;;3.03;;
78120;SDS011;67585;44.802;10.332;2023-09-12T02:30:21;9.70;;;3.92;;
78120;SDS011;67585;44.802;10.332;2023-09-12T02:32:46;6.72;;;3.10;;
78120;SDS011;67585;44.802;10.332;2023-09-12T02:35:12;7.40;;;3.63;;
78120;SDS011;67585;44.802;10.332;2023-09-12T02:37:37;7.28;;;3.55;;
78120;SDS011;67585;44.802;10.332;2023-09-12T02:40:03;9.73;;;3.72;;
78120;SDS011;67585;44.802;10.332;2023-09-12T02:42:30;8.10;;;3.72;;
78120;SDS011;67585;44.802;10.332;2023-09-12T02:44:56;8.32;;;3.65;;
78120;SDS011;67585;44.802;10.332;2023-09-12T02:47:21;8.05;;;3.70;;
78120;SDS011;67585;44.802;10.332;2023-09-12T02:49:46;7.57;;;4.03;;
78120;SDS011;67585;44.802;10.332;2023-09-12T02:52:12;10.30;;;4.35;;
78120;SDS011;67585;44.802;10.332;2023-09-12T02:54:37;6.30;;;3.33;;
78120;SDS011;67585;44.802;10.332;2023-09-12T02:57:03;8.77;;;3.15;;
78120;SDS011;67585;44.802;10.332;2023-09-12T02:59:29;6.88;;;3.38;;
78120;SDS011;67585;44.802;10.332;2023-09-12T03:01:54;8.63;;;4.15;;
78120;SDS011;67585;44.802;10.332;2023-09-12T03:04:20;8.07;;;3.83;;
78120;SDS011;67585;44.802;10.332;2023-09-12T03:06:45;8.98;;;3.05;;
78120;SDS011;67585;44.802;10.332;2023-09-12T03:09:10;6.30;;;3.30;;
78120;SDS011;67585;44.802;10.332;2023-09-12T03:11:36;8.68;;;3.30;;
78120;SDS011;67585;44.802;10.332;2023-09-12T03:14:02;8.27;;;3.80;;
78120;SDS011;67585;44.802;10.332;2023-09-12T03:16:27;8.95;;;3.97;;
78120;SDS011;67585;44.802;10.332;2023-09-12T03:18:53;8.82;;;3.25;;
78120;SDS011;67585;44.802;10.332;2023-09-12T03:21:18;9.10;;;3.88;;
78120;SDS011;67585;44.802;10.332;2023-09-12T03:23:43;7.65;;;3.28;;
78120;SDS011;67585;44.802;10.332;2023-09-12T03:26:09;9.63;;;3.50;;
78120;SDS011;67585;44.802;10.332;2023-09-12T03:28:34;6.70;;;3.90;;
78120;SDS011;67585;44.802;10.332;2023-09-12T03:31:06;7.70;;;3.90;;
78120;SDS011;67585;44.802;10.332;2023-09-12T03:33:33;6.57;;;3.45;;
78120;SDS011;67585;44.802;10.332;2023-09-12T03:35:58;8.15;;;3.83;;
78120;SDS011;67585;44.802;10.332;2023-09-12T03:38:24;9.70;;;4.43;;
78120;SDS011;67585;44.802;10.332;2023-09-12T03:40:49;16.77;;;7.15;;
78120;SDS011;67585;44.802;10.332;2023-09-12T03:43:15;21.80;;;10.00;;
78120;SDS011;67585;44.802;10.332;2023-09-12T03:45:40;14.43;;;6.22;;
78120;SDS011;67585;44.802;10.332;2023-09-12T03:48:05;9.38;;;4.30;;
78120;SDS011;67585;44.802;10.332;2023-09-12T03:50:31;9.43;;;3.33;;
78120;SDS011;67585;44.802;10.332;2023-09-12T03:52:56;9.77;;;4.20;;
78120;SDS011;67585;44.802;10.332;2023-09-12T03:55:22;7.60;;;3.85;;
78120;SDS011;67585;44.802;10.332;2023-09-12T03:57:47;6.72;;;3.38;;
78120;SDS011;67585;44.802;10.332;2023-09-12T04:00:13;18.60;;;9.50;;
78120;SDS011;67585;44.802;10.332;2023-09-12T04:02:38;10.57;;;3.95;;
78120;SDS011;67585;44.802;10.332;2023-09-12T04:05:04;7.20;;;3.67;;
78120;SDS011;67585;44.802;10.332;2023-09-12T04:07:29;9.35;;;3.40;;
78120;SDS011;67585;44.802;10.332;2023-09-12T04:09:55;9.43;;;3.85;;
78120;SDS011;67585;44.802;10.332;2023-09-12T04:12:20;7.88;;;4.13;;
78120;SDS011;67585;44.802;10.332;2023-09-12T04:14:46;12.90;;;4.13;;
78120;SDS011;67585;44.802;10.332;2023-09-12T04:17:12;8.80;;;4.35;;
78120;SDS011;67585;44.802;10.332;2023-09-12T04:19:37;6.72;;;3.15;;
78120;SDS011;67585;44.802;10.332;2023-09-12T04:22:03;9.35;;;4.70;;
78120;SDS011;67585;44.802;10.332;2023-09-12T04:24:29;8.85;;;4.05;;
78120;SDS011;67585;44.802;10.332;2023-09-12T04:26:54;9.32;;;3.13;;
78120;SDS011;67585;44.802;10.332;2023-09-12T04:29:20;7.75;;;4.13;;
78120;SDS011;67585;44.802;10.332;2023-09-12T04:31:45;8.73;;;3.38;;
78120;SDS011;67585;44.802;10.332;2023-09-12T04:34:11;12.05;;;4.53;;
78120;SDS011;67585;44.802;10.332;2023-09-12T04:36:36;10.25;;;4.13;;
78120;SDS011;67585;44.802;10.332;2023-09-12T04:39:01;8.50;;;4.03;;
78120;SDS011;67585;44.802;10.332;2023-09-12T04:41:27;9.70;;;4.28;;
78120;SDS011;67585;44.802;10.332;2023-09-12T04:43:52;8.70;;;3.65;;
78120;SDS011;67585;44.802;10.332;2023-09-12T04:46:17;17.20;;;4.30;;
78120;SDS011;67585;44.802;10.332;2023-09-12T04:48:43;9.85;;;4.20;;
78120;SDS011;67585;44.802;10.332;2023-09-12T04:51:08;7.97;;;4.35;;
78120;SDS011;67585;44.802;10.332;2023-09-12T04:53:34;8.70;;;4.03;;
78120;SDS011;67585;44.802;10.332;2023-09-12T04:56:02;10.00;;;3.60;;
78120;SDS011;67585;44.802;10.332;2023-09-12T04:58:28;7.35;;;3.40;;
78120;SDS011;67585;44.802;10.332;2023-09-12T05:00:54;9.93;;;3.53;;
78120;SDS011;67585;44.802;10.332;2023-09-12T05:03:20;9.90;;;3.35;;
78120;SDS011;67585;44.802;10.332;2023-09-12T05:05:46;10.88;;;3.80;;
78120;SDS011;67585;44.802;10.332;2023-09-12T05:08:13;8.40;;;3.35;;
78120;SDS011;67585;44.802;10.332;2023-09-12T05:10:38;8.90;;;3.50;;
78120;SDS011;67585;44.802;10.332;2023-09-12T05:13:04;10.05;;;3.92;;
78120;SDS011;67585;44.802;10.332;2023-09-12T05:15:30;10.68;;;4.13;;
78120;SDS011;67585;44.802;10.332;2023-09-12T05:17:56;9.07;;;3.88;;
78120;SDS011;67585;44.802;10.332;2023-09-12T05:20:21;10.60;;;3.85;;
78120;SDS011;67585;44.802;10.332;2023-09-12T05:22:46;8.32;;;4.50;;
78120;SDS011;67585;44.802;10.332;2023-09-12T05:25:12;15.02;;;4.00;;
78120;SDS011;67585;44.802;10.332;2023-09-12T05:27:37;8.82;;;3.95;;
78120;SDS011;67585;44.802;10.332;2023-09-12T05:30:03;10.20;;;4.20;;
78120;SDS011;67585;44.802;10.332;2023-09-12T05:32:28;8.15;;;3.95;;
78120;SDS011;67585;44.802;10.332;2023-09-12T05:34:54;9.77;;;4.53;;
78120;SDS011;67585;44.802;10.332;2023-09-12T05:37:19;8.27;;;3.72;;
78120;SDS011;67585;44.802;10.332;2023-09-12T05:39:46;9.00;;;3.25;;
78120;SDS011;67585;44.802;10.332;2023-09-12T05:42:11;8.48;;;4.15;;
78120;SDS011;67585;44.802;10.332;2023-09-12T05:44:37;8.60;;;4.07;;
78120;SDS011;67585;44.802;10.332;2023-09-12T05:47:02;8.48;;;4.05;;
78120;SDS011;67585;44.802;10.332;2023-09-12T05:49:28;9.85;;;4.90;;
78120;SDS011;67585;44.802;10.332;2023-09-12T05:51:54;11.75;;;4.05;;
78120;SDS011;67585;44.802;10.332;2023-09-12T05:54:19;11.63;;;3.97;;
78120;SDS011;67585;44.802;10.332;2023-09-12T05:56:44;11.68;;;4.32;;
78120;SDS011;67585;44.802;10.332;2023-09-12T05:59:10;9.27;;;2.92;;
78120;SDS011;67585;44.802;10.332;2023-09-12T06:01:35;7.90;;;4.18;;
78120;SDS011;67585;44.802;10.332;2023-09-12T06:04:01;9.93;;;4.43;;
78120;SDS011;67585;44.802;10.332;2023-09-12T06:06:27;9.05;;;3.92;;
78120;SDS011;67585;44.802;10.332;2023-09-12T06:08:52;8.68;;;5.63;;
78120;SDS011;67585;44.802;10.332;2023-09-12T06:11:18;10.27;;;3.90;;
78120;SDS011;67585;44.802;10.332;2023-09-12T06:13:44;15.60;;;4.60;;
78120;SDS011;67585;44.802;10.332;2023-09-12T06:16:09;9.50;;;4.60;;
78120;SDS011;67585;44.802;10.332;2023-09-12T06:18:35;9.50;;;3.97;;
78120;SDS011;67585;44.802;10.332;2023-09-12T06:21:00;9.80;;;4.78;;
78120;SDS011;67585;44.802;10.332;2023-09-12T06:23:31;10.07;;;4.75;;
78120;SDS011;67585;44.802;10.332;2023-09-12T06:25:57;9.85;;;4.15;;
78120;SDS011;67585;44.802;10.332;2023-09-12T06:28:28;14.75;;;4.20;;
78120;SDS011;67585;44.802;10.332;2023-09-12T06:33:22;9.60;;;3.08;;
78120;SDS011;67585;44.802;10.332;2023-09-12T06:35:48;10.77;;;4.57;;
78120;SDS011;67585;44.802;10.332;2023-09-12T06:38:14;8.68;;;3.67;;
78120;SDS011;67585;44.802;10.332;2023-09-12T06:40:40;8.85;;;3.85;;
78120;SDS011;67585;44.802;10.332;2023-09-12T06:43:07;7.85;;;3.97;;
78120;SDS011;67585;44.802;10.332;2023-09-12T06:45:32;9.13;;;4.03;;
78120;SDS011;67585;44.802;10.332;2023-09-12T06:47:58;9.88;;;4.30;;
78120;SDS011;67585;44.802;10.332;2023-09-12T06:50:23;9.13;;;3.47;;
78120;SDS011;67585;44.802;10.332;2023-09-12T06:52:49;8.80;;;4.85;;
78120;SDS011;67585;44.802;10.332;2023-09-12T06:55:14;8.50;;;3.97;;
78120;SDS011;67585;44.802;10.332;2023-09-12T06:57:40;10.40;;;3.75;;
78120;SDS011;67585;44.802;10.332;2023-09-12T07:00:05;9.57;;;3.67;;
78120;SDS011;67585;44.802;10.332;2023-09-12T07:02:33;11.55;;;4.53;;
78120;SDS011;67585;44.802;10.332;2023-09-12T07:04:59;8.10;;;3.65;;
78120;SDS011;67585;44.802;10.332;2023-09-12T07:07:24;11.18;;;3.95;;
78120;SDS011;67585;44.802;10.332;2023-09-12T07:09:50;9.52;;;4.00;;
78120;SDS011;67585;44.802;10.332;2023-09-12T07:12:15;11.00;;;4.03;;
78120;SDS011;67585;44.802;10.332;2023-09-12T07:14:40;8.15;;;4.43;;
78120;SDS011;67585;44.802;10.332;2023-09-12T07:17:06;9.60;;;4.25;;
78120;SDS011;67585;44.802;10.332;2023-09-12T07:19:31;12.20;;;4.18;;
78120;SDS011;67585;44.802;10.332;2023-09-12T07:21:57;12.88;;;4.80;;
78120;SDS011;67585;44.802;10.332;2023-09-12T07:24:25;9.82;;;4.95;;
78120;SDS011;67585;44.802;10.332;2023-09-12T07:26:51;12.20;;;4.03;;
78120;SDS011;67585;44.802;10.332;2023-09-12T07:29:17;9.35;;;3.88;;
78120;SDS011;67585;44.802;10.332;2023-09-12T07:31:42;7.72;;;4.47;;
78120;SDS011;67585;44.802;10.332;2023-09-12T07:34:07;9.32;;;4.25;;
78120;SDS011;67585;44.802;10.332;2023-09-12T07:36:33;6.78;;;3.53;;
78120;SDS011;67585;44.802;10.332;2023-09-12T07:38:58;8.02;;;4.15;;
78120;SDS011;67585;44.802;10.332;2023-09-12T07:41:24;11.13;;;4.03;;
78120;SDS011;67585;44.802;10.332;2023-09-12T07:43:49;8.85;;;4.25;;
78120;SDS011;67585;44.802;10.332;2023-09-12T07:46:15;7.85;;;4.30;;
78120;SDS011;67585;44.802;10.332;2023-09-12T07:48:40;10.45;;;4.60;;
78120;SDS011;67585;44.802;10.332;2023-09-12T07:51:12;12.70;;;4.60;;
78120;SDS011;67585;44.802;10.332;2023-09-12T07:53:39;9.95;;;4.32;;
78120;SDS011;67585;44.802;10.332;2023-09-12T07:56:05;11.73;;;4.88;;
78120;SDS011;67585;44.802;10.332;2023-09-12T07:58:31;8.98;;;4.75;;
78120;SDS011;67585;44.802;10.332;2023-09-12T08:00:56;11.05;;;5.43;;
78120;SDS011;67585;44.802;10.332;2023-09-12T08:03:22;11.60;;;5.68;;
78120;SDS011;67585;44.802;10.332;2023-09-12T08:05:56;15.65;;;7.35;;
78120;SDS011;67585;44.802;10.332;2023-09-12T08:08:22;13.82;;;6.65;;
78120;SDS011;67585;44.802;10.332;2023-09-12T08:10:48;15.88;;;7.75;;
78120;SDS011;67585;44.802;10.332;2023-09-12T08:13:14;13.20;;;6.05;;
78120;SDS011;67585;44.802;10.332;2023-09-12T08:15:39;13.15;;;6.50;;
78120;SDS011;67585;44.802;10.332;2023-09-12T08:18:05;11.82;;;7.35;;
78120;SDS011;67585;44.802;10.332;2023-09-12T08:20:30;15.63;;;6.95;;
78120;SDS011;67585;44.802;10.332;2023-09-12T08:22:56;16.50;;;7.75;;
78120;SDS011;67585;44.802;10.332;2023-09-12T08:25:21;13.35;;;7.35;;
78120;SDS011;67585;44.802;10.332;2023-09-12T08:27:46;13.30;;;7.82;;
78120;SDS011;67585;44.802;10.332;2023-09-12T08:30:12;13.73;;;7.65;;
78120;SDS011;67585;44.802;10.332;2023-09-12T08:32:38;16.48;;;7.53;;
78120;SDS011;67585;44.802;10.332;2023-09-12T08:35:08;13.52;;;7.53;;
78120;SDS011;67585;44.802;10.332;2023-09-12T08:37:33;15.10;;;7.43;;
78120;SDS011;67585;44.802;10.332;2023-09-12T08:39:59;16.88;;;7.53;;
78120;SDS011;67585;44.802;10.332;2023-09-12T08:42:26;16.35;;;7.97;;
78120;SDS011;67585;44.802;10.332;2023-09-12T08:44:54;15.93;;;7.95;;
78120;SDS011;67585;44.802;10.332;2023-09-12T08:47:21;15.95;;;8.38;;
78120;SDS011;67585;44.802;10.332;2023-09-12T08:49:48;18.65;;;8.85;;
78120;SDS011;67585;44.802;10.332;2023-09-12T08:52:13;16.20;;;8.15;;
78120;SDS011;67585;44.802;10.332;2023-09-12T08:54:38;25.75;;;9.07;;
78120;SDS011;67585;44.802;10.332;2023-09-12T08:57:07;20.10;;;9.98;;
78120;SDS011;67585;44.802;10.332;2023-09-12T08:59:35;20.00;;;8.15;;
78120;SDS011;67585;44.802;10.332;2023-09-12T09:02:02;21.98;;;9.00;;
78120;SDS011;67585;44.802;10.332;2023-09-12T09:04:31;18.52;;;10.35;;
78120;SDS011;67585;44.802;10.332;2023-09-12T09:06:59;18.83;;;9.60;;
78120;SDS011;67585;44.802;10.332;2023-09-12T09:09:26;14.40;;;8.10;;
78120;SDS011;67585;44.802;10.332;2023-09-12T09:11:55;17.55;;;8.57;;
78120;SDS011;67585;44.802;10.332;2023-09-12T09:14:21;24.27;;;11.43;;
78120;SDS011;67585;44.802;10.332;2023-09-12T09:16:46;22.73;;;9.68;;
78120;SDS011;67585;44.802;10.332;2023-09-12T09:19:11;24.92;;;10.43;;
78120;SDS011;67585;44.802;10.332;2023-09-12T09:21:37;20.35;;;10.48;;
78120;SDS011;67585;44.802;10.332;2023-09-12T09:24:09;18.10;;;8.88;;
78120;SDS011;67585;44.802;10.332;2023-09-12T09:26:49;23.45;;;9.68;;
78120;SDS011;67585;44.802;10.332;2023-09-12T09:29:20;18.88;;;11.13;;
78120;SDS011;67585;44.802;10.332;2023-09-12T09:31:47;23.85;;;12.63;;
78120;SDS011;67585;44.802;10.332;2023-09-12T09:34:14;20.73;;;9.80;;
78120;SDS011;67585;44.802;10.332;2023-09-12T09:39:26;23.75;;;11.77;;
78120;SDS011;67585;44.802;10.332;2023-09-12T09:41:56;23.52;;;12.10;;
78120;SDS011;67585;44.802;10.332;2023-09-12T09:46:51;23.70;;;10.05;;
78120;SDS011;67585;44.802;10.332;2023-09-12T09:49:20;20.25;;;11.80;;
78120;SDS011;67585;44.802;10.332;2023-09-12T09:51:46;20.33;;;12.00;;
78120;SDS011;67585;44.802;10.332;2023-09-12T09:54:13;22.77;;;11.45;;
78120;SDS011;67585;44.802;10.332;2023-09-12T09:56:49;19.67;;;10.02;;
78120;SDS011;67585;44.802;10.332;2023-09-12T09:59:16;17.85;;;10.13;;
78120;SDS011;67585;44.802;10.332;2023-09-12T10:01:44;20.23;;;12.68;;
78120;SDS011;67585;44.802;10.332;2023-09-12T10:04:10;22.85;;;11.05;;
78120;SDS011;67585;44.802;10.332;2023-09-12T10:06:36;16.45;;;9.20;;
78120;SDS011;67585;44.802;10.332;2023-09-12T10:09:05;19.15;;;10.55;;
78120;SDS011;67585;44.802;10.332;2023-09-12T10:11:33;20.38;;;10.85;;
78120;SDS011;67585;44.802;10.332;2023-09-12T10:14:00;23.23;;;10.90;;
78120;SDS011;67585;44.802;10.332;2023-09-12T10:16:31;18.10;;;9.20;;
78120;SDS011;67585;44.802;10.332;2023-09-12T10:18:58;21.27;;;10.77;;
78120;SDS011;67585;44.802;10.332;2023-09-12T10:21:29;19.58;;;10.90;;
78120;SDS011;67585;44.802;10.332;2023-09-12T10:23:58;17.67;;;8.20;;
78120;SDS011;67585;44.802;10.332;2023-09-12T10:28:50;19.38;;;8.38;;
78120;SDS011;67585;44.802;10.332;2023-09-12T10:33:43;17.55;;;9.77;;
78120;SDS011;67585;44.802;10.332;2023-09-12T10:36:10;26.50;;;9.30;;
78120;SDS011;67585;44.802;10.332;2023-09-12T10:38:42;18.17;;;8.35;;
78120;SDS011;67585;44.802;10.332;2023-09-12T10:41:13;13.40;;;7.20;;
78120;SDS011;67585;44.802;10.332;2023-09-12T10:43:40;14.88;;;8.18;;
78120;SDS011;67585;44.802;10.332;2023-09-12T10:46:07;15.88;;;8.45;;
78120;SDS011;67585;44.802;10.332;2023-09-12T10:48:34;14.93;;;7.38;;
78120;SDS011;67585;44.802;10.332;2023-09-12T10:51:00;15.77;;;8.98;;
78120;SDS011;67585;44.802;10.332;2023-09-12T10:53:28;11.77;;;6.78;;
78120;SDS011;67585;44.802;10.332;2023-09-12T10:58:33;18.83;;;6.78;;
78120;SDS011;67585;44.802;10.332;2023-09-12T11:01:25;11.75;;;7.00;;
78120;SDS011;67585;44.802;10.332;2023-09-12T11:03:52;12.00;;;7.47;;
78120;SDS011;67585;44.802;10.332;2023-09-12T11:06:30;12.82;;;5.88;;
78120;SDS011;67585;44.802;10.332;2023-09-12T11:11:40;12.38;;;7.78;;
78120;SDS011;67585;44.802;10.332;2023-09-12T11:14:06;10.15;;;6.43;;
78120;SDS011;67585;44.802;10.332;2023-09-12T11:16:32;12.20;;;6.88;;
78120;SDS011;67585;44.802;10.332;2023-09-12T11:19:17;11.25;;;6.78;;
78120;SDS011;67585;44.802;10.332;2023-09-12T11:21:44;12.55;;;6.68;;
78120;SDS011;67585;44.802;10.332;2023-09-12T11:24:12;13.38;;;5.65;;
78120;SDS011;67585;44.802;10.332;2023-09-12T11:26:57;10.82;;;6.10;;
78120;SDS011;67585;44.802;10.332;2023-09-12T11:29:36;16.92;;;7.03;;
78120;SDS011;67585;44.802;10.332;2023-09-12T11:32:03;10.63;;;5.20;;
78120;SDS011;67585;44.802;10.332;2023-09-12T11:34:35;13.05;;;6.43;;
78120;SDS011;67585;44.802;10.332;2023-09-12T11:37:06;10.73;;;5.85;;
78120;SDS011;67585;44.802;10.332;2023-09-12T11:39:32;10.90;;;5.93;;
78120;SDS011;67585;44.802;10.332;2023-09-12T11:41:59;12.00;;;6.00;;
78120;SDS011;67585;44.802;10.332;2023-09-12T11:44:26;13.80;;;5.95;;
78120;SDS011;67585;44.802;10.332;2023-09-12T11:46:52;12.18;;;5.68;;
78120;SDS011;67585;44.802;10.332;2023-09-12T11:49:18;8.88;;;5.85;;
78120;SDS011;67585;44.802;10.332;2023-09-12T11:54:17;10.02;;;5.50;;
78120;SDS011;67585;44.802;10.332;2023-09-12T11:56:44;11.13;;;5.93;;
78120;SDS011;67585;44.802;10.332;2023-09-12T11:59:10;12.27;;;5.50;;
78120;SDS011;67585;44.802;10.332;2023-09-12T12:01:35;13.70;;;6.15;;
78120;SDS011;67585;44.802;10.332;2023-09-12T12:04:01;11.07;;;6.43;;
78120;SDS011;67585;44.802;10.332;2023-09-12T12:08:54;9.93;;;5.50;;
78120;SDS011;67585;44.802;10.332;2023-09-12T12:11:20;15.43;;;5.28;;
78120;SDS011;67585;44.802;10.332;2023-09-12T12:13:46;10.88;;;5.97;;
78120;SDS011;67585;44.802;10.332;2023-09-12T12:16:15;12.27;;;5.53;;
78120;SDS011;67585;44.802;10.332;2023-09-12T12:18:41;11.27;;;3.88;;
78120;SDS011;67585;44.802;10.332;2023-09-12T12:21:07;9.30;;;5.90;;
78120;SDS011;67585;44.802;10.332;2023-09-12T12:23:32;12.52;;;5.70;;
78120;SDS011;67585;44.802;10.332;2023-09-12T12:26:02;12.80;;;5.88;;
78120;SDS011;67585;44.802;10.332;2023-09-12T12:28:30;9.57;;;5.30;;
78120;SDS011;67585;44.802;10.332;2023-09-12T12:30:55;9.10;;;5.25;;
78120;SDS011;67585;44.802;10.332;2023-09-12T12:33:21;11.02;;;5.18;;
78120;SDS011;67585;44.802;10.332;2023-09-12T12:35:47;10.25;;;4.97;;
78120;SDS011;67585;44.802;10.332;2023-09-12T12:38:15;13.32;;;5.18;;
78120;SDS011;67585;44.802;10.332;2023-09-12T12:40:40;10.00;;;4.95;;
78120;SDS011;67585;44.802;10.332;2023-09-12T12:43:05;12.80;;;5.15;;
78120;SDS011;67585;44.802;10.332;2023-09-12T12:45:51;11.30;;;6.25;;
78120;SDS011;67585;44.802;10.332;2023-09-12T12:48:28;15.93;;;5.18;;
78120;SDS011;67585;44.802;10.332;2023-09-12T12:50:58;12.05;;;4.80;;
78120;SDS011;67585;44.802;10.332;2023-09-12T12:53:39;8.45;;;6.38;;
78120;SDS011;67585;44.802;10.332;2023-09-12T12:56:06;13.93;;;5.25;;
78120;SDS011;67585;44.802;10.332;2023-09-12T12:58:31;14.68;;;5.05;;
78120;SDS011;67585;44.802;10.332;2023-09-12T13:00:57;11.23;;;5.60;;
78120;SDS011;67585;44.802;10.332;2023-09-12T13:03:22;10.30;;;5.20;;
78120;SDS011;67585;44.802;10.332;2023-09-12T13:05:49;14.82;;;5.47;;
78120;SDS011;67585;44.802;10.332;2023-09-12T13:08:14;9.10;;;4.47;;
78120;SDS011;67585;44.802;10.332;2023-09-12T13:10:40;10.43;;;5.20;;
78120;SDS011;67585;44.802;10.332;2023-09-12T13:13:07;10.35;;;4.70;;
78120;SDS011;67585;44.802;10.332;2023-09-12T13:15:33;11.68;;;5.05;;
78120;SDS011;67585;44.802;10.332;2023-09-12T13:17:58;9.20;;;5.00;;
78120;SDS011;67585;44.802;10.332;2023-09-12T13:20:24;11.98;;;4.68;;
78120;SDS011;67585;44.802;10.332;2023-09-12T13:22:49;11.35;;;6.22;;
78120;SDS011;67585;44.802;10.332;2023-09-12T13:25:15;11.70;;;5.30;;
78120;SDS011;67585;44.802;10.332;2023-09-12T13:27:40;11.65;;;6.93;;
78120;SDS011;67585;44.802;10.332;2023-09-12T13:30:06;10.40;;;4.80;;
78120;SDS011;67585;44.802;10.332;2023-09-12T13:32:32;11.65;;;5.32;;
78120;SDS011;67585;44.802;10.332;2023-09-12T13:34:58;9.50;;;5.50;;
78120;SDS011;67585;44.802;10.332;2023-09-12T13:37:23;9.13;;;5.85;;
78120;SDS011;67585;44.802;10.332;2023-09-12T13:39:49;9.05;;;4.80;;
78120;SDS011;67585;44.802;10.332;2023-09-12T13:42:15;14.38;;;5.03;;
78120;SDS011;67585;44.802;10.332;2023-09-12T13:44:45;9.18;;;6.07;;
78120;SDS011;67585;44.802;10.332;2023-09-12T13:47:11;9.60;;;4.32;;
78120;SDS011;67585;44.802;10.332;2023-09-12T13:49:37;9.43;;;6.03;;
78120;SDS011;67585;44.802;10.332;2023-09-12T13:52:02;11.50;;;5.18;;
78120;SDS011;67585;44.802;10.332;2023-09-12T13:54:28;10.07;;;5.38;;
78120;SDS011;67585;44.802;10.332;2023-09-12T13:56:53;10.70;;;5.50;;
78120;SDS011;67585;44.802;10.332;2023-09-12T13:59:19;9.45;;;5.20;;
78120;SDS011;67585;44.802;10.332;2023-09-12T14:01:47;10.15;;;5.53;;
78120;SDS011;67585;44.802;10.332;2023-09-12T14:04:13;14.07;;;5.53;;
78120;SDS011;67585;44.802;10.332;2023-09-12T14:06:39;11.63;;;5.22;;
78120;SDS011;67585;44.802;10.332;2023-09-12T14:09:04;11.27;;;5.40;;
78120;SDS011;67585;44.802;10.332;2023-09-12T14:11:30;9.48;;;4.28;;
78120;SDS011;67585;44.802;10.332;2023-09-12T14:13:56;9.52;;;4.68;;
78120;SDS011;67585;44.802;10.332;2023-09-12T14:16:21;10.60;;;5.80;;
78120;SDS011;67585;44.802;10.332;2023-09-12T14:18:46;13.32;;;6.43;;
78120;SDS011;67585;44.802;10.332;2023-09-12T14:21:12;9.18;;;5.00;;
78120;SDS011;67585;44.802;10.332;2023-09-12T14:23:37;11.50;;;5.53;;
78120;SDS011;67585;44.802;10.332;2023-09-12T14:26:02;9.40;;;5.43;;
78120;SDS011;67585;44.802;10.332;2023-09-12T14:28:28;11.35;;;5.75;;
78120;SDS011;67585;44.802;10.332;2023-09-12T14:30:54;12.50;;;5.75;;
78120;SDS011;67585;44.802;10.332;2023-09-12T14:33:20;12.07;;;5.78;;
78120;SDS011;67585;44.802;10.332;2023-09-12T14:35:46;15.25;;;6.18;;
78120;SDS011;67585;44.802;10.332;2023-09-12T14:38:12;9.38;;;6.03;;
78120;SDS011;67585;44.802;10.332;2023-09-12T14:40:37;10.90;;;6.05;;
78120;SDS011;67585;44.802;10.332;2023-09-12T14:43:04;17.05;;;5.78;;
78120;SDS011;67585;44.802;10.332;2023-09-12T14:45:30;9.63;;;5.72;;
78120;SDS011;67585;44.802;10.332;2023-09-12T14:47:56;13.65;;;5.97;;
78120;SDS011;67585;44.802;10.332;2023-09-12T14:50:22;8.32;;;5.03;;
78120;SDS011;67585;44.802;10.332;2023-09-12T14:55:14;9.27;;;5.35;;